sensor_id;sensor_type;location;lat;lon;timestamp;temperature;humidity
15231;DHT22;32569;51.762;8.564;2022-08-19T00:00:33;20.00;99.90
15231;DHT22;32569;51.762;8.564;2022-08-19T00:03:00;19.80;99.90
15231;DHT22;32569;51.762;8.564;2022-08-19T00:05:27;19.70;99.90
15231;DHT22;32569;51.762;8.564;2022-08-19T00:07:55;19.60;99.90
15231;DHT22;32569;51.762;8.564;2022-08-19T00:10:21;19.50;99.90
15231;DHT22;32569;51.762;8.564;2022-08-19T00:12:49;19.60;99.90
15231;DHT22;32569;51.762;8.564;2022-08-19T00:15:19;19.70;99.90
15231;DHT22;32569;51.762;8.564;2022-08-19T00:17:47;19.70;99.90
15231;DHT22;32569;51.762;8.564;2022-08-19T00:20:17;19.80;99.90
15231;DHT22;32569;51.762;8.564;2022-08-19T00:22:45;19.80;99.90
15231;DHT22;32569;51.762;8.564;2022-08-19T00:25:15;19.80;99.90
15231;DHT22;32569;51.762;8.564;2022-08-19T00:27:41;19.80;99.90
15231;DHT22;32569;51.762;8.564;2022-08-19T00:30:09;19.60;99.90
15231;DHT22;32569;51.762;8.564;2022-08-19T00:32:36;19.50;99.90
15231;DHT22;32569;51.762;8.564;2022-08-19T00:35:04;19.60;99.90
15231;DHT22;32569;51.762;8.564;2022-08-19T00:37:31;19.60;99.90
15231;DHT22;32569;51.762;8.564;2022-08-19T00:39:59;19.50;99.90
15231;DHT22;32569;51.762;8.564;2022-08-19T00:42:29;19.40;99.90
15231;DHT22;32569;51.762;8.564;2022-08-19T00:44:56;19.50;99.90
15231;DHT22;32569;51.762;8.564;2022-08-19T00:47:23;19.60;99.90
15231;DHT22;32569;51.762;8.564;2022-08-19T00:49:52;19.50;99.90
15231;DHT22;32569;51.762;8.564;2022-08-19T00:52:25;19.50;99.90
15231;DHT22;32569;51.762;8.564;2022-08-19T00:54:54;19.50;99.90
15231;DHT22;32569;51.762;8.564;2022-08-19T00:57:26;19.60;99.90
15231;DHT22;32569;51.762;8.564;2022-08-19T00:59:56;19.60;99.90
15231;DHT22;32569;51.762;8.564;2022-08-19T01:02:24;19.50;99.90
15231;DHT22;32569;51.762;8.564;2022-08-19T01:04:51;19.50;99.90
15231;DHT22;32569;51.762;8.564;2022-08-19T01:07:18;19.50;99.90
15231;DHT22;32569;51.762;8.564;2022-08-19T01:09:45;19.50;99.90
15231;DHT22;32569;51.762;8.564;2022-08-19T01:12:11;19.50;99.90
15231;DHT22;32569;51.762;8.564;2022-08-19T01:14:39;19.60;99.90
15231;DHT22;32569;51.762;8.564;2022-08-19T01:17:09;19.60;99.90
15231;DHT22;32569;51.762;8.564;2022-08-19T01:19:37;19.60;99.90
15231;DHT22;32569;51.762;8.564;2022-08-19T01:22:09;19.50;99.90
15231;DHT22;32569;51.762;8.564;2022-08-19T01:24:39;19.40;99.90
15231;DHT22;32569;51.762;8.564;2022-08-19T01:27:06;19.40;99.90
15231;DHT22;32569;51.762;8.564;2022-08-19T01:29:37;19.30;99.90
15231;DHT22;32569;51.762;8.564;2022-08-19T01:32:05;19.30;99.90
15231;DHT22;32569;51.762;8.564;2022-08-19T01:34:32;19.30;99.90
15231;DHT22;32569;51.762;8.564;2022-08-19T01:37:00;19.30;99.90
15231;DHT22;32569;51.762;8.564;2022-08-19T01:39:32;19.30;99.90
15231;DHT22;32569;51.762;8.564;2022-08-19T01:42:00;19.20;99.90
15231;DHT22;32569;51.762;8.564;2022-08-19T01:44:28;19.10;99.90
15231;DHT22;32569;51.762;8.564;2022-08-19T01:46:55;19.00;99.90
15231;DHT22;32569;51.762;8.564;2022-08-19T01:49:23;19.10;99.90
15231;DHT22;32569;51.762;8.564;2022-08-19T01:51:50;19.10;99.90
15231;DHT22;32569;51.762;8.564;2022-08-19T01:54:21;19.00;99.90
15231;DHT22;32569;51.762;8.564;2022-08-19T01:56:48;19.00;99.90
15231;DHT22;32569;51.762;8.564;2022-08-19T01:59:19;18.90;99.90
15231;DHT22;32569;51.762;8.564;2022-08-19T02:01:46;19.00;99.90
15231;DHT22;32569;51.762;8.564;2022-08-19T02:04:13;19.00;99.90
15231;DHT22;32569;51.762;8.564;2022-08-19T02:06:40;18.90;99.90
15231;DHT22;32569;51.762;8.564;2022-08-19T02:09:07;19.00;99.90
15231;DHT22;32569;51.762;8.564;2022-08-19T02:11:35;18.90;99.90
15231;DHT22;32569;51.762;8.564;2022-08-19T02:14:05;18.80;99.90
15231;DHT22;32569;51.762;8.564;2022-08-19T02:16:34;18.70;99.90
15231;DHT22;32569;51.762;8.564;2022-08-19T02:19:02;18.60;99.90
15231;DHT22;32569;51.762;8.564;2022-08-19T02:21:29;18.60;99.90
15231;DHT22;32569;51.762;8.564;2022-08-19T02:23:57;18.60;99.90
15231;DHT22;32569;51.762;8.564;2022-08-19T02:26:24;18.60;99.90
15231;DHT22;32569;51.762;8.564;2022-08-19T02:28:52;18.70;99.90
15231;DHT22;32569;51.762;8.564;2022-08-19T02:31:22;18.70;99.90
15231;DHT22;32569;51.762;8.564;2022-08-19T02:33:50;18.70;99.90
15231;DHT22;32569;51.762;8.564;2022-08-19T02:36:18;18.80;99.90
15231;DHT22;32569;51.762;8.564;2022-08-19T02:38:45;18.90;99.90
15231;DHT22;32569;51.762;8.564;2022-08-19T02:41:14;18.90;99.90
15231;DHT22;32569;51.762;8.564;2022-08-19T02:43:41;18.80;99.90
15231;DHT22;32569;51.762;8.564;2022-08-19T02:46:12;18.80;99.90
15231;DHT22;32569;51.762;8.564;2022-08-19T02:48:39;18.80;99.90
15231;DHT22;32569;51.762;8.564;2022-08-19T02:51:08;18.70;99.90
15231;DHT22;32569;51.762;8.564;2022-08-19T02:53:34;18.80;99.90
15231;DHT22;32569;51.762;8.564;2022-08-19T02:56:06;18.70;99.90
15231;DHT22;32569;51.762;8.564;2022-08-19T02:58:33;18.80;99.90
15231;DHT22;32569;51.762;8.564;2022-08-19T03:01:00;18.80;99.90
15231;DHT22;32569;51.762;8.564;2022-08-19T03:03:26;18.70;99.90
15231;DHT22;32569;51.762;8.564;2022-08-19T03:06:03;18.70;99.90
15231;DHT22;32569;51.762;8.564;2022-08-19T03:08:31;18.80;99.90
15231;DHT22;32569;51.762;8.564;2022-08-19T03:10:58;18.80;99.90
15231;DHT22;32569;51.762;8.564;2022-08-19T03:13:25;18.70;99.90
15231;DHT22;32569;51.762;8.564;2022-08-19T03:15:52;18.60;99.90
15231;DHT22;32569;51.762;8.564;2022-08-19T03:18:18;18.60;99.90
15231;DHT22;32569;51.762;8.564;2022-08-19T03:20:47;18.60;99.90
15231;DHT22;32569;51.762;8.564;2022-08-19T03:23:15;18.60;99.90
15231;DHT22;32569;51.762;8.564;2022-08-19T03:25:46;18.60;99.90
15231;DHT22;32569;51.762;8.564;2022-08-19T03:28:14;18.50;99.90
15231;DHT22;32569;51.762;8.564;2022-08-19T03:30:43;18.50;99.90
15231;DHT22;32569;51.762;8.564;2022-08-19T03:33:10;18.40;99.90
15231;DHT22;32569;51.762;8.564;2022-08-19T03:35:37;18.40;99.90
15231;DHT22;32569;51.762;8.564;2022-08-19T03:38:04;18.40;99.90
15231;DHT22;32569;51.762;8.564;2022-08-19T03:40:32;18.40;99.90
15231;DHT22;32569;51.762;8.564;2022-08-19T03:43:01;18.40;99.90
15231;DHT22;32569;51.762;8.564;2022-08-19T03:45:28;18.50;99.90
15231;DHT22;32569;51.762;8.564;2022-08-19T03:47:55;18.40;99.90
15231;DHT22;32569;51.762;8.564;2022-08-19T03:50:21;18.30;99.90
15231;DHT22;32569;51.762;8.564;2022-08-19T03:52:49;18.20;99.90
15231;DHT22;32569;51.762;8.564;2022-08-19T03:55:16;18.20;99.90
15231;DHT22;32569;51.762;8.564;2022-08-19T03:57:43;18.20;99.90
15231;DHT22;32569;51.762;8.564;2022-08-19T04:00:15;18.10;99.90
15231;DHT22;32569;51.762;8.564;2022-08-19T04:02:43;18.10;99.90
15231;DHT22;32569;51.762;8.564;2022-08-19T04:05:10;18.30;99.90
15231;DHT22;32569;51.762;8.564;2022-08-19T04:07:37;18.10;99.90
15231;DHT22;32569;51.762;8.564;2022-08-19T04:10:04;18.10;99.90
15231;DHT22;32569;51.762;8.564;2022-08-19T04:12:31;18.10;99.90
15231;DHT22;32569;51.762;8.564;2022-08-19T04:14:57;17.80;99.90
15231;DHT22;32569;51.762;8.564;2022-08-19T04:17:25;17.70;99.90
15231;DHT22;32569;51.762;8.564;2022-08-19T04:19:52;17.70;99.90
15231;DHT22;32569;51.762;8.564;2022-08-19T04:22:19;17.70;99.90
15231;DHT22;32569;51.762;8.564;2022-08-19T04:24:45;17.70;99.90
15231;DHT22;32569;51.762;8.564;2022-08-19T04:27:12;17.70;99.90
15231;DHT22;32569;51.762;8.564;2022-08-19T04:29:39;17.70;99.90
15231;DHT22;32569;51.762;8.564;2022-08-19T04:32:06;17.60;99.90
15231;DHT22;32569;51.762;8.564;2022-08-19T04:34:34;17.60;99.90
15231;DHT22;32569;51.762;8.564;2022-08-19T04:37:05;17.60;99.90
15231;DHT22;32569;51.762;8.564;2022-08-19T04:39:33;17.60;99.90
15231;DHT22;32569;51.762;8.564;2022-08-19T04:42:18;17.60;99.90
15231;DHT22;32569;51.762;8.564;2022-08-19T04:45:02;17.60;99.90
15231;DHT22;32569;51.762;8.564;2022-08-19T04:47:29;17.70;99.90
15231;DHT22;32569;51.762;8.564;2022-08-19T04:49:57;17.60;99.90
15231;DHT22;32569;51.762;8.564;2022-08-19T04:52:24;17.70;99.90
15231;DHT22;32569;51.762;8.564;2022-08-19T04:54:51;17.70;99.90
15231;DHT22;32569;51.762;8.564;2022-08-19T04:57:17;17.80;99.90
15231;DHT22;32569;51.762;8.564;2022-08-19T04:59:44;17.90;99.90
15231;DHT22;32569;51.762;8.564;2022-08-19T05:02:10;17.90;99.90
15231;DHT22;32569;51.762;8.564;2022-08-19T05:04:37;17.80;99.90
15231;DHT22;32569;51.762;8.564;2022-08-19T05:07:06;17.90;99.90
15231;DHT22;32569;51.762;8.564;2022-08-19T05:09:32;17.90;99.90
15231;DHT22;32569;51.762;8.564;2022-08-19T05:12:00;17.90;99.90
15231;DHT22;32569;51.762;8.564;2022-08-19T05:14:27;17.90;99.90
15231;DHT22;32569;51.762;8.564;2022-08-19T05:16:54;17.90;99.90
15231;DHT22;32569;51.762;8.564;2022-08-19T05:19:20;17.90;99.90
15231;DHT22;32569;51.762;8.564;2022-08-19T05:22:06;17.90;99.90
15231;DHT22;32569;51.762;8.564;2022-08-19T05:24:50;17.80;99.90
15231;DHT22;32569;51.762;8.564;2022-08-19T05:27:17;18.00;99.90
15231;DHT22;32569;51.762;8.564;2022-08-19T05:29:43;18.10;99.90
15231;DHT22;32569;51.762;8.564;2022-08-19T05:32:10;18.10;99.90
15231;DHT22;32569;51.762;8.564;2022-08-19T05:34:37;18.30;99.90
15231;DHT22;32569;51.762;8.564;2022-08-19T05:37:06;18.60;99.90
15231;DHT22;32569;51.762;8.564;2022-08-19T05:39:35;18.90;99.90
15231;DHT22;32569;51.762;8.564;2022-08-19T05:42:04;19.30;99.90
15231;DHT22;32569;51.762;8.564;2022-08-19T05:44:34;19.60;99.90
15231;DHT22;32569;51.762;8.564;2022-08-19T05:47:03;19.90;99.90
15231;DHT22;32569;51.762;8.564;2022-08-19T05:49:32;20.00;99.90
15231;DHT22;32569;51.762;8.564;2022-08-19T05:52:02;20.10;99.90
15231;DHT22;32569;51.762;8.564;2022-08-19T05:54:30;20.10;99.90
15231;DHT22;32569;51.762;8.564;2022-08-19T05:56:57;20.20;99.90
15231;DHT22;32569;51.762;8.564;2022-08-19T05:59:24;20.40;99.90
15231;DHT22;32569;51.762;8.564;2022-08-19T06:01:51;20.60;99.90
15231;DHT22;32569;51.762;8.564;2022-08-19T06:04:20;20.90;99.90
15231;DHT22;32569;51.762;8.564;2022-08-19T06:06:49;21.10;99.90
15231;DHT22;32569;51.762;8.564;2022-08-19T06:09:16;21.40;99.90
15231;DHT22;32569;51.762;8.564;2022-08-19T06:11:46;21.70;99.90
15231;DHT22;32569;51.762;8.564;2022-08-19T06:14:15;21.70;99.90
15231;DHT22;32569;51.762;8.564;2022-08-19T06:16:43;21.50;99.90
15231;DHT22;32569;51.762;8.564;2022-08-19T06:19:12;21.30;99.90
15231;DHT22;32569;51.762;8.564;2022-08-19T06:21:41;21.00;99.90
15231;DHT22;32569;51.762;8.564;2022-08-19T06:24:11;21.00;99.90
15231;DHT22;32569;51.762;8.564;2022-08-19T06:26:41;21.00;99.90
15231;DHT22;32569;51.762;8.564;2022-08-19T06:29:11;20.80;99.90
15231;DHT22;32569;51.762;8.564;2022-08-19T06:31:41;20.80;99.90
15231;DHT22;32569;51.762;8.564;2022-08-19T06:34:08;20.70;99.90
15231;DHT22;32569;51.762;8.564;2022-08-19T06:36:36;20.60;99.90
15231;DHT22;32569;51.762;8.564;2022-08-19T06:39:06;20.50;99.90
15231;DHT22;32569;51.762;8.564;2022-08-19T06:41:34;20.50;99.90
15231;DHT22;32569;51.762;8.564;2022-08-19T06:44:02;20.60;99.90
15231;DHT22;32569;51.762;8.564;2022-08-19T06:46:30;20.60;99.90
15231;DHT22;32569;51.762;8.564;2022-08-19T06:48:57;20.50;99.90
15231;DHT22;32569;51.762;8.564;2022-08-19T06:51:24;20.30;99.90
15231;DHT22;32569;51.762;8.564;2022-08-19T06:53:54;20.30;99.90
15231;DHT22;32569;51.762;8.564;2022-08-19T06:56:23;20.10;99.90
15231;DHT22;32569;51.762;8.564;2022-08-19T06:58:51;19.90;99.90
15231;DHT22;32569;51.762;8.564;2022-08-19T07:01:19;19.80;99.90
15231;DHT22;32569;51.762;8.564;2022-08-19T07:03:47;20.10;99.90
15231;DHT22;32569;51.762;8.564;2022-08-19T07:06:16;20.20;99.90
15231;DHT22;32569;51.762;8.564;2022-08-19T07:08:45;20.30;99.90
15231;DHT22;32569;51.762;8.564;2022-08-19T07:11:15;20.10;99.90
15231;DHT22;32569;51.762;8.564;2022-08-19T07:13:43;20.20;99.90
15231;DHT22;32569;51.762;8.564;2022-08-19T07:16:12;20.30;99.90
15231;DHT22;32569;51.762;8.564;2022-08-19T07:18:39;20.40;99.90
15231;DHT22;32569;51.762;8.564;2022-08-19T07:21:09;20.50;99.90
15231;DHT22;32569;51.762;8.564;2022-08-19T07:23:36;20.40;99.90
15231;DHT22;32569;51.762;8.564;2022-08-19T07:26:05;20.30;99.90
15231;DHT22;32569;51.762;8.564;2022-08-19T07:28:32;20.50;99.90
15231;DHT22;32569;51.762;8.564;2022-08-19T07:30:59;20.50;99.90
15231;DHT22;32569;51.762;8.564;2022-08-19T07:33:27;20.50;99.90
15231;DHT22;32569;51.762;8.564;2022-08-19T07:35:55;20.80;99.90
15231;DHT22;32569;51.762;8.564;2022-08-19T07:38:23;21.10;99.90
15231;DHT22;32569;51.762;8.564;2022-08-19T07:40:50;21.40;99.90
15231;DHT22;32569;51.762;8.564;2022-08-19T07:43:17;21.40;99.90
15231;DHT22;32569;51.762;8.564;2022-08-19T07:45:46;21.50;99.90
15231;DHT22;32569;51.762;8.564;2022-08-19T07:48:13;21.50;99.90
15231;DHT22;32569;51.762;8.564;2022-08-19T07:50:40;21.40;99.90
15231;DHT22;32569;51.762;8.564;2022-08-19T07:53:06;21.40;99.90
15231;DHT22;32569;51.762;8.564;2022-08-19T07:55:34;21.50;99.90
15231;DHT22;32569;51.762;8.564;2022-08-19T07:58:01;21.60;99.90
15231;DHT22;32569;51.762;8.564;2022-08-19T08:00:28;21.50;99.90
15231;DHT22;32569;51.762;8.564;2022-08-19T08:02:54;21.60;99.90
15231;DHT22;32569;51.762;8.564;2022-08-19T08:05:21;21.70;99.90
15231;DHT22;32569;51.762;8.564;2022-08-19T08:08:05;21.70;99.90
15231;DHT22;32569;51.762;8.564;2022-08-19T08:10:51;21.80;99.90
15231;DHT22;32569;51.762;8.564;2022-08-19T08:13:18;21.80;99.90
15231;DHT22;32569;51.762;8.564;2022-08-19T08:15:44;21.90;99.90
15231;DHT22;32569;51.762;8.564;2022-08-19T08:18:11;21.90;99.90
15231;DHT22;32569;51.762;8.564;2022-08-19T08:20:38;22.00;99.90
15231;DHT22;32569;51.762;8.564;2022-08-19T08:23:05;22.10;99.90
15231;DHT22;32569;51.762;8.564;2022-08-19T08:25:53;22.20;99.90
15231;DHT22;32569;51.762;8.564;2022-08-19T08:28:21;22.40;99.90
15231;DHT22;32569;51.762;8.564;2022-08-19T08:30:49;22.50;99.90
15231;DHT22;32569;51.762;8.564;2022-08-19T08:33:18;22.60;99.90
15231;DHT22;32569;51.762;8.564;2022-08-19T08:35:45;22.60;99.90
15231;DHT22;32569;51.762;8.564;2022-08-19T08:38:12;22.70;99.90
15231;DHT22;32569;51.762;8.564;2022-08-19T08:40:44;22.70;99.90
15231;DHT22;32569;51.762;8.564;2022-08-19T08:43:22;22.60;99.90
15231;DHT22;32569;51.762;8.564;2022-08-19T08:45:55;22.70;99.90
15231;DHT22;32569;51.762;8.564;2022-08-19T08:48:30;22.90;99.90
15231;DHT22;32569;51.762;8.564;2022-08-19T08:50:59;23.00;99.90
15231;DHT22;32569;51.762;8.564;2022-08-19T08:53:27;23.00;99.90
15231;DHT22;32569;51.762;8.564;2022-08-19T08:55:54;23.00;99.90
15231;DHT22;32569;51.762;8.564;2022-08-19T08:58:28;23.00;99.90
15231;DHT22;32569;51.762;8.564;2022-08-19T09:00:56;22.90;99.90
15231;DHT22;32569;51.762;8.564;2022-08-19T09:03:24;22.60;99.90
15231;DHT22;32569;51.762;8.564;2022-08-19T09:05:58;22.50;99.90
15231;DHT22;32569;51.762;8.564;2022-08-19T09:08:36;22.50;99.90
15231;DHT22;32569;51.762;8.564;2022-08-19T09:11:08;22.50;99.90
15231;DHT22;32569;51.762;8.564;2022-08-19T09:13:42;22.60;99.90
15231;DHT22;32569;51.762;8.564;2022-08-19T09:16:14;22.60;99.90
15231;DHT22;32569;51.762;8.564;2022-08-19T09:18:43;22.80;99.90
15231;DHT22;32569;51.762;8.564;2022-08-19T09:21:11;22.80;99.90
15231;DHT22;32569;51.762;8.564;2022-08-19T09:23:38;22.90;99.90
15231;DHT22;32569;51.762;8.564;2022-08-19T09:26:09;23.10;99.90
15231;DHT22;32569;51.762;8.564;2022-08-19T09:28:40;23.30;99.90
15231;DHT22;32569;51.762;8.564;2022-08-19T09:31:09;23.20;99.90
15231;DHT22;32569;51.762;8.564;2022-08-19T09:33:35;23.30;99.90
15231;DHT22;32569;51.762;8.564;2022-08-19T09:36:05;23.10;99.90
15231;DHT22;32569;51.762;8.564;2022-08-19T09:38:32;23.10;99.90
15231;DHT22;32569;51.762;8.564;2022-08-19T09:41:03;23.30;99.90
15231;DHT22;32569;51.762;8.564;2022-08-19T09:43:31;23.60;99.90
15231;DHT22;32569;51.762;8.564;2022-08-19T09:45:59;23.70;99.90
15231;DHT22;32569;51.762;8.564;2022-08-19T09:48:26;24.00;99.90
15231;DHT22;32569;51.762;8.564;2022-08-19T09:50:52;24.10;99.90
15231;DHT22;32569;51.762;8.564;2022-08-19T09:53:20;24.10;99.70
15231;DHT22;32569;51.762;8.564;2022-08-19T09:55:48;24.20;99.80
15231;DHT22;32569;51.762;8.564;2022-08-19T09:58:15;24.20;99.30
15231;DHT22;32569;51.762;8.564;2022-08-19T10:00:42;24.10;99.50
15231;DHT22;32569;51.762;8.564;2022-08-19T10:03:10;24.10;99.60
15231;DHT22;32569;51.762;8.564;2022-08-19T10:05:37;24.00;99.00
15231;DHT22;32569;51.762;8.564;2022-08-19T10:08:19;23.90;99.00
15231;DHT22;32569;51.762;8.564;2022-08-19T10:10:48;23.80;99.20
15231;DHT22;32569;51.762;8.564;2022-08-19T10:13:17;23.80;99.10
15231;DHT22;32569;51.762;8.564;2022-08-19T10:15:47;23.90;99.00
15231;DHT22;32569;51.762;8.564;2022-08-19T10:18:19;23.90;99.10
15231;DHT22;32569;51.762;8.564;2022-08-19T10:20:46;24.00;99.40
15231;DHT22;32569;51.762;8.564;2022-08-19T10:23:13;24.10;99.10
15231;DHT22;32569;51.762;8.564;2022-08-19T10:25:41;24.20;98.80
15231;DHT22;32569;51.762;8.564;2022-08-19T10:28:08;24.40;98.70
15231;DHT22;32569;51.762;8.564;2022-08-19T10:30:38;24.30;98.40
15231;DHT22;32569;51.762;8.564;2022-08-19T10:33:05;24.10;98.20
15231;DHT22;32569;51.762;8.564;2022-08-19T10:35:34;23.90;98.30
15231;DHT22;32569;51.762;8.564;2022-08-19T10:38:01;23.70;98.60
15231;DHT22;32569;51.762;8.564;2022-08-19T10:40:28;23.60;99.00
15231;DHT22;32569;51.762;8.564;2022-08-19T10:42:55;23.60;99.10
15231;DHT22;32569;51.762;8.564;2022-08-19T10:45:22;23.70;99.30
15231;DHT22;32569;51.762;8.564;2022-08-19T10:47:53;23.80;99.20
15231;DHT22;32569;51.762;8.564;2022-08-19T10:50:20;24.00;97.90
15231;DHT22;32569;51.762;8.564;2022-08-19T10:53:06;24.00;97.60
15231;DHT22;32569;51.762;8.564;2022-08-19T10:55:34;24.10;97.60
15231;DHT22;32569;51.762;8.564;2022-08-19T10:58:21;24.30;97.50
15231;DHT22;32569;51.762;8.564;2022-08-19T11:00:52;24.50;96.60
15231;DHT22;32569;51.762;8.564;2022-08-19T11:03:20;24.60;96.10
15231;DHT22;32569;51.762;8.564;2022-08-19T11:05:46;24.80;95.00
15231;DHT22;32569;51.762;8.564;2022-08-19T11:08:15;24.80;95.20
15231;DHT22;32569;51.762;8.564;2022-08-19T11:10:42;24.90;95.50
15231;DHT22;32569;51.762;8.564;2022-08-19T11:13:09;24.90;95.50
15231;DHT22;32569;51.762;8.564;2022-08-19T11:15:36;25.00;95.80
15231;DHT22;32569;51.762;8.564;2022-08-19T11:18:03;24.90;96.40
15231;DHT22;32569;51.762;8.564;2022-08-19T11:20:30;24.70;96.10
15231;DHT22;32569;51.762;8.564;2022-08-19T11:22:57;24.50;96.30
15231;DHT22;32569;51.762;8.564;2022-08-19T11:25:25;24.40;96.00
15231;DHT22;32569;51.762;8.564;2022-08-19T11:27:53;24.40;95.70
15231;DHT22;32569;51.762;8.564;2022-08-19T11:30:21;24.40;95.70
15231;DHT22;32569;51.762;8.564;2022-08-19T11:32:47;24.60;95.70
15231;DHT22;32569;51.762;8.564;2022-08-19T11:35:15;24.60;95.70
15231;DHT22;32569;51.762;8.564;2022-08-19T11:37:41;24.70;95.00
15231;DHT22;32569;51.762;8.564;2022-08-19T11:40:09;24.70;95.00
15231;DHT22;32569;51.762;8.564;2022-08-19T11:42:37;24.70;95.10
15231;DHT22;32569;51.762;8.564;2022-08-19T11:45:22;24.80;94.30
15231;DHT22;32569;51.762;8.564;2022-08-19T11:47:49;24.70;94.30
15231;DHT22;32569;51.762;8.564;2022-08-19T11:50:16;24.80;94.60
15231;DHT22;32569;51.762;8.564;2022-08-19T11:52:44;24.90;93.80
15231;DHT22;32569;51.762;8.564;2022-08-19T11:55:11;25.00;94.60
15231;DHT22;32569;51.762;8.564;2022-08-19T11:57:39;25.10;95.10
15231;DHT22;32569;51.762;8.564;2022-08-19T12:00:07;25.10;94.50
15231;DHT22;32569;51.762;8.564;2022-08-19T12:02:34;25.20;94.40
15231;DHT22;32569;51.762;8.564;2022-08-19T12:05:01;25.20;93.60
15231;DHT22;32569;51.762;8.564;2022-08-19T12:07:28;25.30;93.80
15231;DHT22;32569;51.762;8.564;2022-08-19T12:09:56;25.20;93.90
15231;DHT22;32569;51.762;8.564;2022-08-19T12:12:23;25.20;93.90
15231;DHT22;32569;51.762;8.564;2022-08-19T12:14:51;25.30;94.10
15231;DHT22;32569;51.762;8.564;2022-08-19T12:17:22;25.40;94.20
15231;DHT22;32569;51.762;8.564;2022-08-19T12:19:49;25.50;93.40
15231;DHT22;32569;51.762;8.564;2022-08-19T12:22:15;25.60;93.30
15231;DHT22;32569;51.762;8.564;2022-08-19T12:24:42;25.60;92.80
15231;DHT22;32569;51.762;8.564;2022-08-19T12:27:08;25.80;93.70
15231;DHT22;32569;51.762;8.564;2022-08-19T12:29:35;25.80;93.60
15231;DHT22;32569;51.762;8.564;2022-08-19T12:32:03;25.70;93.70
15231;DHT22;32569;51.762;8.564;2022-08-19T12:34:31;25.60;94.00
15231;DHT22;32569;51.762;8.564;2022-08-19T12:37:00;25.60;93.70
15231;DHT22;32569;51.762;8.564;2022-08-19T12:39:27;25.50;93.90
15231;DHT22;32569;51.762;8.564;2022-08-19T12:41:54;25.50;94.00
15231;DHT22;32569;51.762;8.564;2022-08-19T12:44:21;25.50;93.30
15231;DHT22;32569;51.762;8.564;2022-08-19T12:46:48;25.70;93.10
15231;DHT22;32569;51.762;8.564;2022-08-19T12:49:16;25.80;93.40
15231;DHT22;32569;51.762;8.564;2022-08-19T12:51:42;25.90;93.10
15231;DHT22;32569;51.762;8.564;2022-08-19T12:54:09;26.00;92.90
15231;DHT22;32569;51.762;8.564;2022-08-19T12:56:36;26.00;92.90
15231;DHT22;32569;51.762;8.564;2022-08-19T12:59:03;26.10;93.10
15231;DHT22;32569;51.762;8.564;2022-08-19T13:01:31;26.20;92.20
15231;DHT22;32569;51.762;8.564;2022-08-19T13:03:58;26.40;91.90
15231;DHT22;32569;51.762;8.564;2022-08-19T13:06:26;26.30;91.80
15231;DHT22;32569;51.762;8.564;2022-08-19T13:08:53;26.20;92.30
15231;DHT22;32569;51.762;8.564;2022-08-19T13:11:21;26.20;92.40
15231;DHT22;32569;51.762;8.564;2022-08-19T13:13:51;26.10;92.70
15231;DHT22;32569;51.762;8.564;2022-08-19T13:16:18;26.10;93.10
15231;DHT22;32569;51.762;8.564;2022-08-19T13:18:48;26.10;93.10
15231;DHT22;32569;51.762;8.564;2022-08-19T13:21:18;26.30;93.30
15231;DHT22;32569;51.762;8.564;2022-08-19T13:23:47;26.40;92.30
15231;DHT22;32569;51.762;8.564;2022-08-19T13:26:15;26.40;92.50
15231;DHT22;32569;51.762;8.564;2022-08-19T13:28:43;26.30;91.90
15231;DHT22;32569;51.762;8.564;2022-08-19T13:31:29;26.50;92.30
15231;DHT22;32569;51.762;8.564;2022-08-19T13:34:14;26.60;92.40
15231;DHT22;32569;51.762;8.564;2022-08-19T13:36:41;26.80;92.50
15231;DHT22;32569;51.762;8.564;2022-08-19T13:39:09;26.80;92.10
15231;DHT22;32569;51.762;8.564;2022-08-19T13:41:36;26.90;92.10
15231;DHT22;32569;51.762;8.564;2022-08-19T13:44:04;26.90;92.30
15231;DHT22;32569;51.762;8.564;2022-08-19T13:46:31;27.10;91.90
15231;DHT22;32569;51.762;8.564;2022-08-19T13:48:58;27.30;92.30
15231;DHT22;32569;51.762;8.564;2022-08-19T13:51:24;27.30;91.60
15231;DHT22;32569;51.762;8.564;2022-08-19T13:53:51;27.20;91.10
15231;DHT22;32569;51.762;8.564;2022-08-19T13:56:20;26.90;90.80
15231;DHT22;32569;51.762;8.564;2022-08-19T13:58:46;26.80;90.20
15231;DHT22;32569;51.762;8.564;2022-08-19T14:01:19;26.70;90.20
15231;DHT22;32569;51.762;8.564;2022-08-19T14:03:46;26.70;90.60
15231;DHT22;32569;51.762;8.564;2022-08-19T14:06:12;26.70;91.10
15231;DHT22;32569;51.762;8.564;2022-08-19T14:08:40;26.70;91.20
15231;DHT22;32569;51.762;8.564;2022-08-19T14:11:07;26.60;91.70
15231;DHT22;32569;51.762;8.564;2022-08-19T14:13:35;26.50;91.00
15231;DHT22;32569;51.762;8.564;2022-08-19T14:16:07;26.40;91.50
15231;DHT22;32569;51.762;8.564;2022-08-19T14:18:33;26.30;91.50
15231;DHT22;32569;51.762;8.564;2022-08-19T14:21:00;26.40;91.40
15231;DHT22;32569;51.762;8.564;2022-08-19T14:23:28;26.50;91.70
15231;DHT22;32569;51.762;8.564;2022-08-19T14:26:03;26.70;91.30
15231;DHT22;32569;51.762;8.564;2022-08-19T14:28:30;26.90;91.60
15231;DHT22;32569;51.762;8.564;2022-08-19T14:30:58;27.10;91.60
15231;DHT22;32569;51.762;8.564;2022-08-19T14:33:24;27.30;91.50
15231;DHT22;32569;51.762;8.564;2022-08-19T14:35:51;27.50;91.30
15231;DHT22;32569;51.762;8.564;2022-08-19T14:38:18;27.60;90.90
15231;DHT22;32569;51.762;8.564;2022-08-19T14:40:45;27.70;90.50
15231;DHT22;32569;51.762;8.564;2022-08-19T14:43:12;27.50;89.30
15231;DHT22;32569;51.762;8.564;2022-08-19T14:45:39;27.50;89.90
15231;DHT22;32569;51.762;8.564;2022-08-19T14:48:08;27.60;90.70
15231;DHT22;32569;51.762;8.564;2022-08-19T14:50:35;27.60;90.10
15231;DHT22;32569;51.762;8.564;2022-08-19T14:53:05;27.70;90.20
15231;DHT22;32569;51.762;8.564;2022-08-19T14:55:32;27.70;90.50
15231;DHT22;32569;51.762;8.564;2022-08-19T14:57:59;27.80;90.80
15231;DHT22;32569;51.762;8.564;2022-08-19T15:00:27;27.80;90.70
15231;DHT22;32569;51.762;8.564;2022-08-19T15:02:54;27.80;90.10
15231;DHT22;32569;51.762;8.564;2022-08-19T15:05:22;27.50;90.40
15231;DHT22;32569;51.762;8.564;2022-08-19T15:07:48;27.30;90.50
15231;DHT22;32569;51.762;8.564;2022-08-19T15:10:16;27.00;90.80
15231;DHT22;32569;51.762;8.564;2022-08-19T15:12:42;27.00;90.90
15231;DHT22;32569;51.762;8.564;2022-08-19T15:15:11;27.10;90.70
15231;DHT22;32569;51.762;8.564;2022-08-19T15:17:39;27.20;89.80
15231;DHT22;32569;51.762;8.564;2022-08-19T15:20:07;27.20;90.30
15231;DHT22;32569;51.762;8.564;2022-08-19T15:22:36;27.30;90.00
15231;DHT22;32569;51.762;8.564;2022-08-19T15:25:03;27.50;89.90
15231;DHT22;32569;51.762;8.564;2022-08-19T15:27:30;27.50;90.50
15231;DHT22;32569;51.762;8.564;2022-08-19T15:29:57;27.40;90.40
15231;DHT22;32569;51.762;8.564;2022-08-19T15:32:24;27.50;90.30
15231;DHT22;32569;51.762;8.564;2022-08-19T15:34:52;27.30;90.00
15231;DHT22;32569;51.762;8.564;2022-08-19T15:37:19;27.20;90.30